createdAt,value
2019-02-19T00:00:32.794Z,78.50
2019-02-19T00:03:06.461Z,78.39
2019-02-19T00:05:40.264Z,78.34
2019-02-19T00:08:13.661Z,78.39
2019-02-19T00:10:46.754Z,78.59
2019-02-19T00:13:19.931Z,78.24
2019-02-19T00:26:29.014Z,78.30
2019-02-19T00:29:21.078Z,78.48
2019-02-19T00:32:13.674Z,78.58
2019-02-19T00:34:47.132Z,78.49
2019-02-19T00:37:20.926Z,78.13
2019-02-19T00:39:54.620Z,78.14
2019-02-19T00:42:28.362Z,78.04
2019-02-19T00:45:01.801Z,78.53
2019-02-19T00:47:36.184Z,78.88
2019-02-19T00:50:27.697Z,79.00
2019-02-19T00:53:18.282Z,78.91
2019-02-19T00:55:51.568Z,78.94
2019-02-19T00:58:25.411Z,78.49
2019-02-19T01:00:59.888Z,78.50
2019-02-19T01:03:33.564Z,78.67
2019-02-19T01:06:06.845Z,78.54
2019-02-19T01:08:57.159Z,78.48
2019-02-19T01:11:30.993Z,78.50
2019-02-19T01:14:05.669Z,78.59
2019-02-19T01:16:38.771Z,78.89
2019-02-19T01:19:30.363Z,79.14
2019-02-19T01:22:15.714Z,79.31
2019-02-19T01:24:47.770Z,79.36
2019-02-19T01:27:22.296Z,79.19
2019-02-19T01:29:56.244Z,79.08
2019-02-19T01:32:48.498Z,79.18
2019-02-19T01:35:22.278Z,79.39
2019-02-19T01:37:55.798Z,79.66
2019-02-19T01:40:30.626Z,79.67
2019-02-19T01:43:15.590Z,79.95
2019-02-19T01:46:09.772Z,80.03
2019-02-19T01:48:43.517Z,79.81
2019-02-19T01:51:17.508Z,79.81
2019-02-19T01:53:51.214Z,79.89
2019-02-19T01:56:43.107Z,80.15
2019-02-19T01:59:34.010Z,80.13
2019-02-19T02:02:07.264Z,80.29
2019-02-19T02:04:41.695Z,79.98
2019-02-19T02:07:33.698Z,79.42
2019-02-19T02:10:21.429Z,79.29
2019-02-19T02:12:54.895Z,79.22
2019-02-19T02:15:28.609Z,79.44
2019-02-19T02:18:02.051Z,79.39
2019-02-19T02:20:35.553Z,79.53
2019-02-19T02:23:09.351Z,79.52
2019-02-19T02:25:43.094Z,79.46
2019-02-19T02:28:17.248Z,79.45
2019-02-19T02:30:51.949Z,79.53
2019-02-19T02:33:37.724Z,79.64
2019-02-19T02:36:11.595Z,79.94
2019-02-19T02:38:45.290Z,80.08
2019-02-19T02:41:19.138Z,79.94
2019-02-19T02:43:53.432Z,79.52
2019-02-19T02:46:39.385Z,79.30
2019-02-19T02:49:13.209Z,79.29
2019-02-19T02:51:47.417Z,79.47
2019-02-19T02:54:38.989Z,79.63
2019-02-19T02:57:26.857Z,79.79
2019-02-19T03:00:00.339Z,79.95
2019-02-19T03:02:34.402Z,79.52
2019-02-19T03:05:07.981Z,79.32
2019-02-19T03:07:49.741Z,79.09
2019-02-19T03:10:23.733Z,78.27
2019-02-19T03:13:16.502Z,76.82
2019-02-19T03:15:50.535Z,75.81
2019-02-19T03:18:24.713Z,75.07
2019-02-19T03:21:17.414Z,75.05
2019-02-19T03:24:02.773Z,74.53
2019-02-19T03:26:48.380Z,74.07
2019-02-19T03:29:33.690Z,73.28
2019-02-19T03:32:18.798Z,72.64
2019-02-19T03:35:11.372Z,72.25
2019-02-19T03:37:45.247Z,72.18
2019-02-19T03:40:19.230Z,71.94
2019-02-19T03:42:53.022Z,71.86
2019-02-19T03:45:38.442Z,71.99
2019-02-19T03:48:23.818Z,72.17
2019-02-19T03:51:15.622Z,72.33
2019-02-19T03:53:50.182Z,72.44
2019-02-19T03:56:49.280Z,72.72
2019-02-19T03:59:23.034Z,72.83
2019-02-19T04:01:56.755Z,73.25
2019-02-19T04:04:31.846Z,73.45
2019-02-19T04:07:05.045Z,73.66
2019-02-19T04:09:38.764Z,73.71
2019-02-19T04:12:13.149Z,73.85
2019-02-19T04:14:46.617Z,73.95
2019-02-19T04:17:20.232Z,74.20
2019-02-19T04:19:53.996Z,74.67
2019-02-19T04:22:28.074Z,75.39
2019-02-19T04:25:21.280Z,76.22
2019-02-19T04:27:55.291Z,76.71
2019-02-19T04:30:30.455Z,77.51
2019-02-19T04:33:24.716Z,78.75
2019-02-19T04:36:16.542Z,79.89
2019-02-19T04:38:50.685Z,80.83
2019-02-19T04:41:24.798Z,81.79
2019-02-19T04:44:17.093Z,82.77
2019-02-19T04:47:08.645Z,83.48
2019-02-19T04:49:54.946Z,84.24
2019-02-19T04:52:30.072Z,84.84
2019-02-19T05:05:49.371Z,86.69
2019-02-19T05:19:12.972Z,87.60
2019-02-19T05:21:47.041Z,87.77
2019-02-19T05:24:36.009Z,87.95
2019-02-19T05:27:21.645Z,88.10
2019-02-19T05:30:07.878Z,88.22
2019-02-19T05:32:55.072Z,88.32
2019-02-19T05:35:29.164Z,88.35
2019-02-19T05:38:02.939Z,88.39
2019-02-19T05:40:36.814Z,88.47
2019-02-19T05:43:22.378Z,88.62
2019-02-19T05:45:56.238Z,88.76
2019-02-19T05:48:41.797Z,88.87
2019-02-19T05:51:17.268Z,88.92
2019-02-19T05:54:03.887Z,88.97
2019-02-19T05:56:37.641Z,89.03
2019-02-19T05:59:29.275Z,89.12
2019-02-19T06:02:03.778Z,89.18
2019-02-19T06:04:55.146Z,89.22
2019-02-19T06:07:40.684Z,89.28
2019-02-19T06:10:14.455Z,89.29
2019-02-19T06:12:48.756Z,89.28
2019-02-19T06:15:22.516Z,89.28
2019-02-19T06:17:56.646Z,89.24
2019-02-19T06:20:30.648Z,89.26
2019-02-19T06:23:15.399Z,89.23
2019-02-19T06:26:07.371Z,89.25
2019-02-19T06:28:59.170Z,89.25
2019-02-19T06:31:50.255Z,89.23
2019-02-19T06:34:43.733Z,89.26
2019-02-19T06:37:36.712Z,89.26
2019-02-19T06:40:23.371Z,89.25
2019-02-19T06:42:59.028Z,89.21
2019-02-19T06:56:07.618Z,88.97
2019-02-19T06:58:56.012Z,88.84
2019-02-19T07:02:02.704Z,88.65
2019-02-19T07:04:39.818Z,88.52
2019-02-19T07:07:25.892Z,88.37
2019-02-19T07:10:16.860Z,88.24
2019-02-19T07:13:05.448Z,88.08
2019-02-19T07:26:21.501Z,87.30
2019-02-19T07:28:55.365Z,87.21
2019-02-19T07:31:29.926Z,87.04
2019-02-19T07:34:22.464Z,86.90
2019-02-19T07:36:56.606Z,86.71
2019-02-19T07:39:30.372Z,86.53
2019-02-19T07:42:05.845Z,86.27
2019-02-19T07:44:58.713Z,85.94
2019-02-19T07:47:32.614Z,85.65
2019-02-19T07:50:07.117Z,85.48
2019-02-19T07:52:59.074Z,85.28
2019-02-19T07:55:33.032Z,85.18
2019-02-19T08:08:43.014Z,84.62
2019-02-19T08:11:29.323Z,84.36
2019-02-19T08:14:03.364Z,84.23
2019-02-19T08:16:37.507Z,84.15
2019-02-19T08:19:25.827Z,84.09
2019-02-19T08:22:18.152Z,83.74
2019-02-19T08:35:36.630Z,83.25
2019-02-19T08:38:28.010Z,83.10
2019-02-19T08:41:02.414Z,82.99
2019-02-19T08:43:36.161Z,82.81
2019-02-19T08:46:24.830Z,82.68
2019-02-19T08:49:18.842Z,82.67
2019-02-19T08:52:09.284Z,82.66
2019-02-19T08:55:05.076Z,82.68
2019-02-19T08:58:05.812Z,82.56
2019-02-19T09:00:43.844Z,82.58
2019-02-19T09:03:17.542Z,82.54
2019-02-19T09:05:50.687Z,82.18
2019-02-19T09:08:40.902Z,81.99
2019-02-19T09:11:15.072Z,81.78
2019-02-19T09:14:06.958Z,81.40
2019-02-19T09:16:52.427Z,81.01
2019-02-19T09:19:42.962Z,80.50
2019-02-19T09:22:17.612Z,80.15
2019-02-19T09:24:51.360Z,79.66
2019-02-19T09:27:25.126Z,79.59
2019-02-19T09:29:58.656Z,79.59
2019-02-19T09:32:32.051Z,79.28
2019-02-19T09:35:06.419Z,79.25
2019-02-19T09:37:50.899Z,78.69
2019-02-19T10:07:21.845Z,75.07
2019-02-19T10:09:55.079Z,74.72
2019-02-19T10:12:29.176Z,75.03
2019-02-19T10:15:21.386Z,75.17
2019-02-19T10:17:54.931Z,74.77
2019-02-19T10:31:11.804Z,74.72
2019-02-19T10:33:44.942Z,74.37
2019-02-19T10:36:18.383Z,74.52
2019-02-19T10:38:52.204Z,73.97
2019-02-19T10:41:25.575Z,73.59
2019-02-19T10:43:59.001Z,73.76
2019-02-19T10:46:33.029Z,73.36
2019-02-19T10:49:06.153Z,73.29
2019-02-19T10:51:51.887Z,73.56
2019-02-19T10:54:25.693Z,73.63
2019-02-19T10:56:59.595Z,73.15
2019-02-19T11:18:28.152Z,73.08
2019-02-19T11:20:56.975Z,72.95
2019-02-19T11:23:30.897Z,72.56
2019-02-19T11:26:05.303Z,72.63
2019-02-19T11:28:41.084Z,72.53
2019-02-19T11:31:14.914Z,72.28
2019-02-19T11:33:48.691Z,72.03
2019-02-19T11:36:22.181Z,72.15
2019-02-19T11:38:55.949Z,72.13
2019-02-19T11:57:41.055Z,71.82
2019-02-19T12:00:17.724Z,71.36
2019-02-19T12:02:51.156Z,71.38
2019-02-19T12:05:24.583Z,71.39
2019-02-19T12:07:58.372Z,71.24
2019-02-19T12:10:32.146Z,71.06
2019-02-19T12:13:05.385Z,71.14
2019-02-19T12:15:39.172Z,70.93
2019-02-19T12:18:12.797Z,70.67
2019-02-19T12:20:46.473Z,70.80
2019-02-19T12:23:20.524Z,70.89
2019-02-19T12:26:05.097Z,70.16
2019-02-19T12:28:38.891Z,70.48
2019-02-19T13:00:23.944Z,71.55
2019-02-19T13:02:57.683Z,71.82
2019-02-19T13:05:31.145Z,71.83
2019-02-19T13:08:04.897Z,71.92
2019-02-19T13:10:38.672Z,71.88
2019-02-19T13:13:12.462Z,71.89
2019-02-19T13:15:45.898Z,71.97
2019-02-19T13:18:19.706Z,71.82
2019-02-19T13:20:53.127Z,71.49
2019-02-19T13:23:27.022Z,71.46
2019-02-19T13:26:01.252Z,71.68
2019-02-19T13:55:41.464Z,72.43
2019-02-19T13:58:15.694Z,72.38
2019-02-19T14:17:02.774Z,72.23
2019-02-19T14:22:57.003Z,72.61
2019-02-19T14:25:52.540Z,72.78
2019-02-19T14:28:45.196Z,72.71
2019-02-19T14:31:36.580Z,72.72
2019-02-19T14:34:27.445Z,72.76
2019-02-19T14:37:32.067Z,72.92
2019-02-19T14:40:23.157Z,72.89
2019-02-19T14:43:10.579Z,72.92
2019-02-19T15:02:09.086Z,76.31
2019-02-19T15:05:00.276Z,76.66
2019-02-19T15:07:50.892Z,77.06
2019-02-19T15:11:18.039Z,79.02
2019-02-19T15:14:52.215Z,81.57
2019-02-19T15:18:11.389Z,83.00
2019-02-19T15:21:11.120Z,84.06
2019-02-19T15:37:20.205Z,86.01
2019-02-19T15:40:12.953Z,86.31
2019-02-19T15:43:23.889Z,86.34
2019-02-19T15:46:16.357Z,86.40
2019-02-19T15:49:07.750Z,86.64
2019-02-19T15:51:54.903Z,86.82
2019-02-19T15:55:04.513Z,86.94
2019-02-19T15:58:04.869Z,86.99
2019-02-19T16:00:43.269Z,87.10
2019-02-19T16:03:24.962Z,86.82
2019-02-19T16:06:17.287Z,86.62
2019-02-19T16:09:23.077Z,86.74
2019-02-19T16:12:07.224Z,86.98
2019-02-19T16:14:58.574Z,87.11
2019-02-19T16:17:49.996Z,87.05
2019-02-19T16:21:00.159Z,86.88
2019-02-19T16:23:40.031Z,86.77
2019-02-19T16:26:44.432Z,86.83
2019-02-19T16:29:35.730Z,86.97
2019-02-19T16:32:37.742Z,86.97
2019-02-19T16:35:28.773Z,87.04
2019-02-19T16:38:27.063Z,87.12
2019-02-19T16:41:18.022Z,87.26
2019-02-19T16:44:01.942Z,87.32
2019-02-19T16:57:48.293Z,86.77
2019-02-19T17:01:05.531Z,86.27
2019-02-19T17:03:46.562Z,86.24
2019-02-19T17:07:19.721Z,86.00
2019-02-19T17:10:37.696Z,85.78
2019-02-19T17:13:30.557Z,85.85
2019-02-19T17:16:17.898Z,86.21
2019-02-19T17:19:54.959Z,86.77
2019-02-19T17:23:05.981Z,87.03
2019-02-19T17:36:50.738Z,87.37
2019-02-19T17:39:43.231Z,87.48
2019-02-19T17:42:35.940Z,87.46
2019-02-19T17:45:37.223Z,87.39
2019-02-19T17:48:28.802Z,87.57
2019-02-19T17:52:04.415Z,87.52
2019-02-19T17:55:02.694Z,87.50
2019-02-19T17:57:55.712Z,87.48
2019-02-19T18:01:12.289Z,87.33
2019-02-19T18:04:11.051Z,87.12
2019-02-19T18:07:23.259Z,86.95
2019-02-19T18:10:30.942Z,86.82
2019-02-19T18:13:26.447Z,86.86
2019-02-19T18:16:25.310Z,86.98
2019-02-19T18:18:59.052Z,87.11
2019-02-19T18:21:32.563Z,87.19
2019-02-19T18:24:06.433Z,87.33
2019-02-19T18:26:40.675Z,87.48
2019-02-19T18:29:15.713Z,87.66
2019-02-19T18:31:49.701Z,87.81
2019-02-19T18:34:35.064Z,87.89
2019-02-19T18:37:26.534Z,88.04
2019-02-19T18:39:59.968Z,88.09
2019-02-19T18:42:34.022Z,88.18
2019-02-19T18:45:20.292Z,88.10
2019-02-19T18:48:11.953Z,88.12
2019-02-19T18:50:58.606Z,88.11
2019-02-19T18:53:31.580Z,87.99
2019-02-19T18:56:05.615Z,87.97
2019-02-19T19:28:02.121Z,86.99
2019-02-19T19:30:35.929Z,86.95
2019-02-19T19:33:09.642Z,86.85
2019-02-19T19:35:43.724Z,86.68
2019-02-19T19:38:17.292Z,86.59
2019-02-19T19:40:50.983Z,86.49
2019-02-19T19:43:24.537Z,86.52
2019-02-19T19:45:58.986Z,86.45
2019-02-19T19:48:33.584Z,86.46
2019-02-19T20:15:06.340Z,86.11
2019-02-19T20:40:19.998Z,85.82
2019-02-19T21:19:51.528Z,85.32
2019-02-19T21:22:43.259Z,85.25
2019-02-19T21:35:58.943Z,84.99
2019-02-19T21:38:32.827Z,85.00
2019-02-19T21:41:08.075Z,84.96
2019-02-19T21:43:56.508Z,84.85
